Virgie Cenac — WDC2765 — position and weather

sailwx.info

Track history (hours):
 
Tides and Currents Weather Stations Pressure Air Temp Water Temp Dewpoint Dewpoint Depression Visibility Wind Speed Wind Dir Waves Ship Positions

Virgie Cenac

Owner: Cenac Marine Transportation, Inc., Houma, LA. More information available from US FCC via Universal Licensing System and Coast Guard Vessel Documentation Center.

Last reported at 2015-Feb-23 20:28 UTC. Time now 2015-Mar-01 20:54 UTC.
Position N 29°39' W 091°21'.

Length 18 m; draft 3 m.

Type: Towing. MMSI: 366997430.

Date/timePositionNaut miles runAvg speedWind from/ knotsBaromVisibWave heightAir tempDewpointWater temp
2015-Feb-23 20:28N 29°39' W 091°21'7 8.0
2015-Feb-23 19:33N 29°41' W 091°13'5 5.3
2015-Feb-23 18:33N 29°39' W 091°07'1 1.1
2015-Feb-23 17:18N 29°40' W 091°06'0 0.0
2015-Feb-23 16:31N 29°40' W 091°06'2 1.2
2015-Feb-23 14:33N 29°38' W 091°05'2 2.5
2015-Feb-23 13:33N 29°39' W 091°07'2 2.4
2015-Feb-23 12:33N 29°41' W 091°09'2 2.2
2015-Feb-23 11:33N 29°41' W 091°11'2 1.9
2015-Feb-23 10:33N 29°41' W 091°13'1 1.3
2015-Feb-23 09:33N 29°40' W 091°14'2 1.8
2015-Feb-23 08:33N 29°39' W 091°16'2 1.8
2015-Feb-23 07:33N 29°39' W 091°18'2 1.9
2015-Feb-23 06:33N 29°38' W 091°20'  
2015-Feb-17 00:09N 29°41' W 091°28'3 5.0
2015-Feb-16 23:33N 29°39' W 091°25'5 4.6
2015-Feb-16 22:33N 29°38' W 091°20'4 4.3
2015-Feb-16 21:33N 29°39' W 091°15'5 5.0
2015-Feb-16 20:33N 29°41' W 091°10'5 5.0
2015-Feb-16 19:33N 29°38' W 091°05'  
Track history (hours):
 
Tides and Currents Weather Stations Pressure Air Temp Water Temp Dewpoint Dewpoint Depression Visibility Wind Speed Wind Dir Waves Ship Positions

Virgie Cenac

Owner: Cenac Marine Transportation, Inc., Houma, LA. More information available from US FCC via Universal Licensing System and Coast Guard Vessel Documentation Center.

Last reported at 2015-Feb-23 20:28 UTC. Time now 2015-Mar-01 20:54 UTC.
Position N 29°39' W 091°21'.

Length 18 m; draft 3 m.

Type: Towing. MMSI: 366997430.

Date/timePositionNaut miles runAvg speedWind from/ knotsBaromVisibWave heightAir tempDewpointWater temp
2015-Feb-23 20:28N 29°39' W 091°21'7 8.0
2015-Feb-23 19:33N 29°41' W 091°13'5 5.3
2015-Feb-23 18:33N 29°39' W 091°07'1 1.1
2015-Feb-23 17:18N 29°40' W 091°06'0 0.0
2015-Feb-23 16:31N 29°40' W 091°06'2 1.2
2015-Feb-23 14:33N 29°38' W 091°05'2 2.5
2015-Feb-23 13:33N 29°39' W 091°07'2 2.4
2015-Feb-23 12:33N 29°41' W 091°09'2 2.2
2015-Feb-23 11:33N 29°41' W 091°11'2 1.9
2015-Feb-23 10:33N 29°41' W 091°13'1 1.3
2015-Feb-23 09:33N 29°40' W 091°14'2 1.8
2015-Feb-23 08:33N 29°39' W 091°16'2 1.8
2015-Feb-23 07:33N 29°39' W 091°18'2 1.9
2015-Feb-23 06:33N 29°38' W 091°20'  
2015-Feb-17 00:09N 29°41' W 091°28'3 5.0
2015-Feb-16 23:33N 29°39' W 091°25'5 4.6
2015-Feb-16 22:33N 29°38' W 091°20'4 4.3
2015-Feb-16 21:33N 29°39' W 091°15'5 5.0
2015-Feb-16 20:33N 29°41' W 091°10'5 5.0
2015-Feb-16 19:33N 29°38' W 091°05'  

Dump ship's entire track history